createdAt,value
2023-03-18T00:02:21.856Z,53.71
2023-03-18T00:04:53.047Z,53.97
2023-03-18T00:07:25.913Z,53.84
2023-03-18T00:09:56.552Z,54.09
2023-03-18T00:12:28.304Z,54.02
2023-03-18T00:15:01.152Z,54.05
2023-03-18T00:17:32.560Z,54.14
2023-03-18T00:20:06.286Z,54.19
2023-03-18T00:22:40.679Z,54.13
2023-03-18T00:25:13.916Z,54.41
2023-03-18T00:27:44.948Z,54.58
2023-03-18T00:30:15.988Z,54.58
2023-03-18T00:32:47.464Z,54.61
2023-03-18T00:35:21.910Z,54.64
2023-03-18T00:37:57.454Z,54.69
2023-03-18T00:40:33.366Z,54.58
2023-03-18T00:43:05.838Z,54.87
2023-03-18T00:45:39.449Z,54.81
2023-03-18T00:48:11.305Z,54.75
2023-03-18T00:50:43.300Z,54.80
2023-03-18T00:53:14.825Z,54.91
2023-03-18T00:55:46.965Z,54.94
2023-03-18T00:58:19.582Z,55.01
2023-03-18T01:00:52.038Z,54.78
2023-03-18T01:03:26.801Z,55.05
2023-03-18T01:05:58.766Z,54.87
2023-03-18T01:08:32.952Z,54.96
2023-03-18T01:11:03.718Z,54.79
2023-03-18T01:13:34.993Z,54.95
2023-03-18T01:16:08.699Z,54.83
2023-03-18T01:18:41.680Z,54.87
2023-03-18T01:21:13.591Z,54.72
2023-03-18T01:23:45.471Z,54.77
2023-03-18T01:26:16.875Z,54.82
2023-03-18T01:28:48.206Z,54.82
2023-03-18T01:31:19.713Z,54.79
2023-03-18T01:33:50.742Z,54.74
2023-03-18T01:36:22.789Z,54.71
2023-03-18T01:38:54.924Z,54.75
2023-03-18T01:41:26.844Z,54.65
2023-03-18T01:43:57.415Z,54.62
2023-03-18T01:46:44.993Z,54.87
2023-03-18T01:49:19.216Z,54.65
2023-03-18T01:52:12.928Z,54.36
2023-03-18T01:54:48.240Z,54.48
2023-03-18T01:57:19.424Z,54.51
2023-03-18T01:59:51.904Z,54.59
2023-03-18T02:02:23.731Z,54.53
2023-03-18T02:04:58.844Z,54.42
2023-03-18T02:07:36.005Z,54.45
2023-03-18T02:10:12.896Z,54.31
2023-03-18T02:12:46.352Z,54.39
2023-03-18T02:15:19.823Z,54.35
2023-03-18T02:17:59.012Z,54.59
2023-03-18T02:20:52.516Z,54.27
2023-03-18T02:23:47.502Z,54.35
2023-03-18T02:26:36.244Z,54.47
2023-03-18T02:29:09.680Z,54.58
2023-03-18T02:31:42.182Z,54.55
2023-03-18T02:34:15.320Z,54.66
2023-03-18T02:36:49.396Z,54.69
2023-03-18T02:39:19.978Z,54.95
2023-03-18T02:41:53.632Z,55.06
2023-03-18T02:44:28.614Z,54.78
2023-03-18T02:47:02.464Z,54.98
2023-03-18T02:49:33.781Z,55.04
2023-03-18T02:52:06.219Z,55.07
2023-03-18T02:54:38.176Z,55.01
2023-03-18T02:57:10.384Z,55.12
2023-03-18T02:59:41.125Z,55.12
2023-03-18T03:02:11.985Z,55.21
2023-03-18T03:04:43.450Z,55.32
2023-03-18T03:07:16.319Z,55.29
2023-03-18T03:09:46.895Z,55.57
2023-03-18T03:12:17.935Z,55.81
2023-03-18T03:14:48.430Z,55.88
2023-03-18T03:17:19.224Z,56.02
2023-03-18T03:19:49.788Z,56.02
2023-03-18T03:22:20.777Z,55.72
2023-03-18T03:24:51.335Z,56.03
2023-03-18T03:27:24.052Z,56.07
2023-03-18T03:29:56.170Z,55.83
2023-03-18T03:32:27.638Z,56.18
2023-03-18T03:34:58.644Z,55.99
2023-03-18T03:37:30.664Z,56.03
2023-03-18T03:40:08.227Z,56.23
2023-03-18T03:42:40.353Z,56.26
2023-03-18T03:45:13.721Z,56.43
2023-03-18T03:47:46.848Z,56.97
2023-03-18T03:50:21.610Z,56.99
2023-03-18T03:52:54.577Z,56.81
2023-03-18T03:55:28.423Z,56.96
2023-03-18T03:57:59.982Z,56.97
2023-03-18T04:00:33.523Z,56.78
2023-03-18T04:03:05.751Z,57.17
2023-03-18T04:05:39.102Z,57.31
2023-03-18T04:08:12.206Z,57.37
2023-03-18T04:10:43.360Z,57.22
2023-03-18T04:13:16.933Z,57.19
2023-03-18T04:15:48.030Z,57.42
2023-03-18T04:18:18.652Z,57.31
2023-03-18T04:20:49.674Z,57.29
2023-03-18T04:23:20.883Z,57.48
2023-03-18T04:25:51.520Z,57.38
2023-03-18T04:28:22.119Z,57.53
2023-03-18T04:30:52.876Z,57.54
2023-03-18T04:33:24.874Z,57.64
2023-03-18T04:35:58.270Z,57.87
2023-03-18T04:38:29.516Z,57.59
2023-03-18T04:41:00.111Z,57.78
2023-03-18T04:43:30.801Z,57.62
2023-03-18T04:46:02.166Z,57.60
2023-03-18T04:48:35.901Z,58.01
2023-03-18T04:51:08.430Z,57.89
2023-03-18T04:53:39.339Z,57.87
2023-03-18T04:56:09.893Z,57.94
2023-03-18T04:58:40.526Z,57.88
2023-03-18T05:01:12.767Z,57.53
2023-03-18T05:03:43.743Z,57.93
2023-03-18T05:06:27.014Z,57.60
2023-03-18T05:08:58.978Z,58.00
2023-03-18T05:11:30.143Z,57.97
2023-03-18T05:14:00.950Z,58.02
2023-03-18T05:16:32.597Z,58.19
2023-03-18T05:19:03.363Z,58.24
2023-03-18T05:21:33.877Z,58.35
2023-03-18T05:24:04.813Z,58.19
2023-03-18T05:26:36.183Z,58.35
2023-03-18T05:29:09.210Z,58.22
2023-03-18T05:31:39.711Z,58.28
2023-03-18T05:34:10.422Z,58.31
2023-03-18T05:36:41.014Z,58.41
2023-03-18T05:39:13.242Z,58.93
2023-03-18T05:41:46.612Z,58.35
2023-03-18T05:44:17.238Z,58.97
2023-03-18T05:46:48.479Z,58.28
2023-03-18T05:49:21.745Z,58.10
2023-03-18T05:51:55.040Z,58.38
2023-03-18T05:54:28.291Z,58.22
2023-03-18T05:57:02.045Z,57.67
2023-03-18T05:59:33.897Z,57.89
2023-03-18T06:02:07.228Z,58.31
2023-03-18T06:04:39.355Z,57.86
2023-03-18T06:07:14.066Z,57.90
2023-03-18T06:09:44.698Z,57.65
2023-03-18T06:12:19.143Z,57.76
2023-03-18T06:14:49.971Z,57.73
2023-03-18T06:17:22.490Z,57.75
2023-03-18T06:19:53.193Z,57.62
2023-03-18T06:22:23.680Z,57.91
2023-03-18T06:24:55.270Z,57.94
2023-03-18T06:27:26.316Z,57.94
2023-03-18T06:30:00.124Z,57.91
2023-03-18T06:32:34.041Z,57.90
2023-03-18T06:35:06.994Z,57.79
2023-03-18T06:37:39.151Z,57.89
2023-03-18T06:40:14.207Z,57.94
2023-03-18T06:42:45.372Z,57.90
2023-03-18T06:45:17.162Z,58.01
2023-03-18T06:47:49.445Z,57.93
2023-03-18T06:50:22.485Z,58.02
2023-03-18T06:52:53.722Z,58.25
2023-03-18T06:55:25.818Z,57.99
2023-03-18T06:57:59.088Z,57.71
2023-03-18T07:00:31.935Z,57.81
2023-03-18T07:03:02.833Z,57.70
2023-03-18T07:05:34.758Z,57.04
2023-03-18T07:08:13.364Z,56.69
2023-03-18T07:10:47.048Z,56.92
2023-03-18T07:13:20.738Z,56.85
2023-03-18T07:15:56.739Z,56.46
2023-03-18T07:18:30.995Z,56.50
2023-03-18T07:21:07.306Z,56.64
2023-03-18T07:23:39.665Z,55.96
2023-03-18T07:26:13.371Z,56.09
2023-03-18T07:28:46.709Z,55.92
2023-03-18T07:31:17.323Z,55.68
2023-03-18T07:33:49.369Z,56.06
2023-03-18T07:36:22.666Z,56.02
2023-03-18T07:38:54.549Z,55.75
2023-03-18T07:41:26.210Z,55.43
2023-03-18T07:43:57.873Z,55.14
2023-03-18T07:46:30.434Z,54.47
2023-03-18T07:49:02.956Z,53.78
2023-03-18T07:51:33.583Z,52.97
2023-03-18T07:54:05.986Z,51.77
2023-03-18T07:56:38.378Z,51.37
2023-03-18T07:59:21.637Z,50.79
2023-03-18T08:01:56.213Z,49.93
2023-03-18T08:04:31.109Z,50.04
2023-03-18T08:07:03.215Z,49.83
2023-03-18T08:09:34.247Z,49.18
2023-03-18T08:12:08.773Z,49.01
2023-03-18T08:14:44.114Z,49.66
2023-03-18T08:17:16.727Z,49.59
2023-03-18T08:19:53.867Z,49.70
2023-03-18T08:22:25.723Z,49.18
2023-03-18T08:24:58.274Z,49.13
2023-03-18T08:27:29.109Z,48.26
2023-03-18T08:30:02.939Z,47.87
2023-03-18T08:32:32.475Z,47.70
2023-03-18T08:35:04.958Z,47.70
2023-03-18T08:37:38.393Z,47.71
2023-03-18T08:40:10.986Z,47.65
2023-03-18T08:42:49.177Z,48.07
2023-03-18T08:45:22.798Z,49.35
2023-03-18T08:47:54.994Z,49.21
2023-03-18T08:50:31.398Z,48.76
2023-03-18T08:53:02.864Z,47.97
2023-03-18T08:55:40.788Z,49.63
2023-03-18T08:58:22.887Z,49.88
2023-03-18T09:00:58.169Z,50.07
2023-03-18T09:03:30.821Z,49.42
2023-03-18T09:06:03.132Z,48.70
2023-03-18T09:08:36.625Z,47.80
2023-03-18T09:11:11.413Z,47.20
2023-03-18T09:13:42.389Z,46.92
2023-03-18T09:16:20.337Z,46.45
2023-03-18T09:18:51.567Z,48.21
2023-03-18T09:21:25.108Z,47.51
2023-03-18T09:24:02.743Z,48.10
2023-03-18T09:26:33.502Z,48.59
2023-03-18T09:29:06.071Z,48.25
2023-03-18T09:31:40.301Z,47.46
2023-03-18T09:34:13.650Z,46.68
2023-03-18T09:36:49.783Z,46.85
2023-03-18T09:39:26.260Z,46.72
2023-03-18T09:42:07.214Z,46.47
2023-03-18T09:44:41.534Z,45.86
2023-03-18T09:47:37.481Z,46.18
2023-03-18T09:50:31.780Z,46.65
2023-03-18T09:53:09.598Z,46.25
2023-03-18T09:55:46.787Z,48.35
2023-03-18T09:58:52.673Z,47.33
2023-03-18T10:01:30.322Z,46.04
2023-03-18T10:04:13.380Z,45.71
2023-03-18T10:06:48.542Z,45.49
2023-03-18T10:09:34.399Z,45.36
2023-03-18T10:12:26.001Z,46.25
2023-03-18T10:14:57.625Z,45.18
2023-03-18T10:17:47.643Z,46.47
2023-03-18T10:20:27.117Z,45.22
2023-03-18T10:23:31.055Z,46.93
2023-03-18T10:26:07.633Z,47.55
2023-03-18T10:28:47.353Z,46.92
2023-03-18T10:31:27.562Z,47.52
2023-03-18T10:34:04.553Z,47.62
2023-03-18T10:36:49.319Z,48.40
2023-03-18T10:39:28.908Z,47.54
2023-03-18T10:42:02.499Z,46.62
2023-03-18T10:44:36.997Z,46.85
2023-03-18T10:47:19.859Z,47.94
2023-03-18T10:50:09.005Z,47.05
2023-03-18T10:52:58.350Z,46.58
2023-03-18T10:55:34.757Z,46.67
2023-03-18T10:58:22.203Z,47.16
2023-03-18T11:00:53.959Z,47.64
2023-03-18T11:03:37.465Z,47.05
2023-03-18T11:06:11.737Z,46.61
2023-03-18T11:08:48.311Z,46.68
2023-03-18T11:11:36.874Z,46.33
2023-03-18T11:14:11.224Z,45.59
2023-03-18T11:16:44.779Z,45.47
2023-03-18T11:19:36.628Z,46.06
2023-03-18T11:22:13.829Z,45.03
2023-03-18T11:24:46.488Z,45.48
2023-03-18T11:27:25.670Z,46.20
2023-03-18T11:29:59.504Z,46.09
2023-03-18T11:32:38.248Z,46.33
2023-03-18T11:35:11.480Z,46.65
2023-03-18T11:37:45.610Z,47.18
2023-03-18T11:40:19.237Z,47.57
2023-03-18T11:42:52.291Z,47.96
2023-03-18T11:45:35.249Z,48.22
2023-03-18T11:48:09.259Z,48.68
2023-03-18T11:50:43.167Z,48.86
2023-03-18T11:53:23.906Z,49.21
2023-03-18T11:56:05.249Z,48.68
2023-03-18T11:59:06.167Z,47.87
2023-03-18T12:01:48.515Z,46.90
2023-03-18T12:04:47.492Z,47.10
2023-03-18T12:07:43.319Z,47.15
2023-03-18T12:10:24.086Z,47.25
2023-03-18T12:13:08.834Z,47.34
2023-03-18T12:15:46.237Z,48.14
2023-03-18T12:18:26.060Z,48.21
2023-03-18T12:20:58.848Z,47.51
2023-03-18T12:23:35.371Z,47.38
2023-03-18T12:26:18.376Z,48.08
2023-03-18T12:29:01.881Z,49.02
2023-03-18T12:32:04.788Z,48.98
2023-03-18T12:34:48.364Z,47.63
2023-03-18T12:37:35.771Z,47.74
2023-03-18T12:40:21.537Z,48.10
2023-03-18T12:43:07.225Z,48.13
2023-03-18T12:45:43.657Z,47.50
2023-03-18T12:48:17.222Z,48.58
2023-03-18T12:50:52.422Z,48.68
2023-03-18T12:53:28.695Z,49.03
2023-03-18T12:56:06.253Z,49.29
2023-03-18T12:58:40.227Z,49.62
2023-03-18T13:01:16.617Z,49.21
2023-03-18T13:03:55.865Z,49.50
2023-03-18T13:06:36.432Z,49.35
2023-03-18T13:09:34.754Z,50.00
2023-03-18T13:12:12.021Z,49.69
2023-03-18T13:14:59.935Z,49.48
2023-03-18T13:17:42.483Z,49.96
2023-03-18T13:20:25.477Z,51.61
2023-03-18T13:23:20.786Z,51.97
2023-03-18T13:26:10.252Z,51.49
2023-03-18T13:28:56.765Z,52.70
2023-03-18T13:31:48.415Z,53.58
2023-03-18T13:34:51.084Z,54.70
2023-03-18T13:37:43.254Z,54.35
2023-03-18T13:40:43.226Z,53.95
2023-03-18T13:43:20.877Z,53.49
2023-03-18T13:45:54.537Z,52.91
2023-03-18T13:48:33.734Z,52.41
2023-03-18T13:51:29.894Z,52.24
2023-03-18T13:54:06.786Z,52.75
2023-03-18T13:56:46.171Z,52.25
2023-03-18T13:59:38.094Z,52.09
2023-03-18T14:02:31.107Z,51.75
2023-03-18T14:05:03.602Z,51.94
2023-03-18T14:07:41.458Z,51.79
2023-03-18T14:10:22.811Z,51.27
2023-03-18T14:12:53.398Z,50.79
2023-03-18T14:15:44.259Z,51.18
2023-03-18T14:18:20.776Z,51.21
2023-03-18T14:20:59.210Z,52.18
2023-03-18T14:23:47.163Z,52.60
2023-03-18T14:26:27.029Z,52.58
2023-03-18T14:29:11.454Z,51.90
2023-03-18T14:31:53.810Z,52.44
2023-03-18T14:34:31.633Z,53.22
2023-03-18T14:37:16.994Z,53.36
2023-03-18T14:39:53.832Z,54.31
2023-03-18T14:42:42.471Z,54.26
2023-03-18T14:45:31.962Z,53.54
2023-03-18T14:48:14.676Z,53.07
2023-03-18T14:50:51.586Z,53.26
2023-03-18T14:53:38.222Z,52.54
2023-03-18T14:56:23.140Z,52.26
2023-03-18T14:58:56.449Z,52.08
2023-03-18T15:01:44.730Z,52.54
2023-03-18T15:04:22.608Z,52.12
2023-03-18T15:06:56.528Z,52.18
2023-03-18T15:09:35.820Z,52.71
2023-03-18T15:12:27.800Z,53.03
2023-03-18T15:15:01.377Z,53.71
2023-03-18T15:17:32.209Z,53.23
2023-03-18T15:20:07.381Z,53.39
2023-03-18T15:22:38.733Z,53.98
2023-03-18T15:25:14.735Z,54.46
2023-03-18T15:27:47.332Z,54.42
2023-03-18T15:30:25.742Z,55.15
2023-03-18T15:33:04.076Z,55.50
2023-03-18T15:35:44.855Z,55.97
2023-03-18T15:38:16.857Z,56.13
2023-03-18T15:40:54.897Z,56.41
2023-03-18T15:43:45.974Z,56.36
2023-03-18T15:46:33.167Z,57.01
2023-03-18T15:49:07.154Z,56.92
2023-03-18T15:51:48.043Z,57.39
2023-03-18T15:54:29.238Z,57.45
2023-03-18T15:57:06.688Z,57.57
2023-03-18T15:59:38.677Z,57.28
2023-03-18T16:02:15.344Z,57.49
2023-03-18T16:05:06.555Z,57.49
2023-03-18T16:07:38.686Z,57.83
2023-03-18T16:10:12.408Z,57.83
2023-03-18T16:12:44.955Z,57.72
2023-03-18T16:15:25.578Z,57.33
2023-03-18T16:17:58.662Z,57.33
2023-03-18T16:20:33.375Z,56.91
2023-03-18T16:23:05.499Z,56.57
2023-03-18T16:25:37.736Z,57.10
2023-03-18T16:28:12.488Z,56.77
2023-03-18T16:30:45.696Z,56.75
2023-03-18T16:33:18.301Z,56.18
2023-03-18T16:36:04.327Z,56.12
2023-03-18T16:38:35.470Z,56.08
2023-03-18T16:41:09.543Z,56.52
2023-03-18T16:43:42.227Z,57.26
2023-03-18T16:46:15.924Z,57.06
2023-03-18T16:48:48.404Z,56.94
2023-03-18T16:51:20.335Z,57.44
2023-03-18T16:53:54.035Z,57.42
2023-03-18T16:56:26.780Z,57.79
2023-03-18T16:59:02.052Z,58.19
2023-03-18T17:01:33.851Z,58.64
2023-03-18T17:04:23.586Z,58.47
2023-03-18T17:06:55.651Z,58.88
2023-03-18T17:09:28.391Z,59.08
2023-03-18T17:12:07.662Z,59.35
2023-03-18T17:14:41.480Z,59.94
2023-03-18T17:17:18.134Z,60.55
2023-03-18T17:19:51.323Z,60.80
2023-03-18T17:22:29.059Z,61.18
2023-03-18T17:25:02.412Z,60.40
2023-03-18T17:27:41.925Z,60.59
2023-03-18T17:30:22.619Z,61.07
2023-03-18T17:32:54.731Z,61.23
2023-03-18T17:35:25.852Z,62.22
2023-03-18T17:37:59.164Z,62.48
2023-03-18T17:40:32.637Z,63.11
2023-03-18T17:43:05.237Z,63.55
2023-03-18T17:45:36.631Z,63.87
2023-03-18T17:48:27.434Z,64.02
2023-03-18T17:51:07.250Z,63.76
2023-03-18T17:53:46.178Z,63.53
2023-03-18T17:56:18.750Z,62.71
2023-03-18T17:58:51.525Z,62.66
2023-03-18T18:01:30.292Z,63.31
2023-03-18T18:04:03.056Z,63.02
2023-03-18T18:06:34.034Z,63.14
2023-03-18T18:09:07.009Z,62.89
2023-03-18T18:11:41.064Z,63.47
2023-03-18T18:14:29.420Z,63.84
2023-03-18T18:17:02.812Z,64.55
2023-03-18T18:19:36.408Z,64.67
2023-03-18T18:22:09.793Z,65.21
2023-03-18T18:24:40.792Z,65.27
2023-03-18T18:27:13.353Z,66.18
2023-03-18T18:29:46.993Z,66.86
2023-03-18T18:32:18.989Z,66.84
2023-03-18T18:34:51.571Z,67.47
2023-03-18T18:37:22.242Z,67.16
2023-03-18T18:39:52.884Z,67.40
2023-03-18T18:42:27.711Z,67.80
2023-03-18T18:44:59.426Z,67.56
2023-03-18T18:47:32.631Z,68.34
2023-03-18T18:50:05.398Z,68.29
2023-03-18T18:52:36.052Z,68.42
2023-03-18T18:55:11.703Z,68.58
2023-03-18T18:57:48.217Z,68.40
2023-03-18T19:00:24.260Z,68.17
2023-03-18T19:02:57.540Z,68.67
2023-03-18T19:05:31.321Z,68.43
2023-03-18T19:08:03.939Z,68.07
2023-03-18T19:10:36.584Z,68.46
2023-03-18T19:13:10.457Z,68.61
2023-03-18T19:15:43.641Z,68.64
2023-03-18T19:18:20.297Z,68.92
2023-03-18T19:20:52.997Z,68.66
2023-03-18T19:23:29.916Z,68.95
2023-03-18T19:26:01.704Z,69.33
2023-03-18T19:28:55.081Z,69.65
2023-03-18T19:31:19.992Z,69.75
2023-03-18T19:33:53.698Z,69.37
2023-03-18T19:36:32.454Z,69.26
2023-03-18T19:39:04.615Z,68.93
2023-03-18T19:41:36.763Z,69.10
2023-03-18T19:44:25.077Z,69.68
2023-03-18T19:47:04.306Z,70.28
2023-03-18T19:49:38.183Z,70.59
2023-03-18T19:52:21.911Z,70.36
2023-03-18T19:54:55.908Z,70.38
2023-03-18T19:57:29.479Z,70.13
2023-03-18T20:00:04.891Z,70.02
2023-03-18T20:02:39.323Z,69.73
2023-03-18T20:05:21.653Z,69.91
2023-03-18T20:07:53.770Z,69.50
2023-03-18T20:10:26.042Z,69.24
2023-03-18T20:12:57.974Z,69.05
2023-03-18T20:15:33.313Z,68.84
2023-03-18T20:18:06.570Z,68.18
2023-03-18T20:20:39.131Z,68.39
2023-03-18T20:23:12.681Z,68.60
2023-03-18T20:25:49.375Z,68.53
2023-03-18T20:28:23.995Z,68.51
2023-03-18T20:30:58.048Z,68.50
2023-03-18T20:33:31.350Z,68.65
2023-03-18T20:36:04.584Z,68.93
2023-03-18T20:38:40.859Z,68.82
2023-03-18T20:41:16.458Z,69.01
2023-03-18T20:43:51.058Z,69.20
2023-03-18T20:46:25.520Z,69.03
2023-03-18T20:48:57.992Z,68.67
2023-03-18T20:51:37.756Z,68.51
2023-03-18T20:54:20.147Z,68.36
2023-03-18T20:56:51.435Z,68.28
2023-03-18T20:59:22.156Z,68.16
2023-03-18T21:01:53.705Z,68.71
2023-03-18T21:04:25.027Z,68.60
2023-03-18T21:06:58.288Z,68.59
2023-03-18T21:09:33.595Z,68.46
2023-03-18T21:12:04.438Z,69.02
2023-03-18T21:14:36.688Z,69.24
2023-03-18T21:17:08.723Z,69.93
2023-03-18T21:19:43.868Z,70.38
2023-03-18T21:22:27.365Z,70.56
2023-03-18T21:24:59.595Z,70.37
2023-03-18T21:27:30.535Z,68.77
2023-03-18T21:30:02.180Z,68.40
2023-03-18T21:32:33.193Z,68.60
2023-03-18T21:35:10.691Z,68.78
2023-03-18T21:37:42.691Z,68.47
2023-03-18T21:40:21.667Z,68.83
2023-03-18T21:42:53.019Z,68.63
2023-03-18T21:45:24.264Z,68.98
2023-03-18T21:47:58.136Z,68.78
2023-03-18T21:50:30.356Z,69.14
2023-03-18T21:53:02.352Z,69.14
2023-03-18T21:55:35.323Z,69.21
2023-03-18T21:58:06.606Z,68.54
2023-03-18T22:00:39.704Z,68.45
2023-03-18T22:03:18.198Z,67.83
2023-03-18T22:05:51.597Z,67.94
2023-03-18T22:08:25.920Z,68.23
2023-03-18T22:10:59.440Z,68.30
2023-03-18T22:13:34.222Z,68.13
2023-03-18T22:16:04.964Z,68.05
2023-03-18T22:18:37.113Z,67.86
2023-03-18T22:21:17.584Z,67.93
2023-03-18T22:23:48.999Z,67.98
2023-03-18T22:26:28.403Z,67.81
2023-03-18T22:29:05.374Z,67.92
2023-03-18T22:31:40.174Z,68.01
2023-03-18T22:34:27.523Z,68.47
2023-03-18T22:36:59.077Z,68.50
2023-03-18T22:39:32.855Z,68.78
2023-03-18T22:42:04.017Z,69.22
2023-03-18T22:44:38.075Z,69.34
2023-03-18T22:47:19.987Z,68.76
2023-03-18T22:49:54.565Z,68.93
2023-03-18T22:52:30.372Z,69.31
2023-03-18T22:55:04.252Z,69.76
2023-03-18T22:57:41.287Z,69.67
2023-03-18T23:00:18.911Z,69.72
2023-03-18T23:02:53.907Z,70.43
2023-03-18T23:05:26.139Z,70.46
2023-03-18T23:08:00.700Z,70.53
2023-03-18T23:11:01.955Z,70.91
2023-03-18T23:13:41.622Z,70.97
2023-03-18T23:16:18.269Z,70.91
2023-03-18T23:18:49.782Z,71.06
2023-03-18T23:21:28.233Z,71.16
2023-03-18T23:24:05.948Z,71.26
2023-03-18T23:26:41.699Z,71.47
2023-03-18T23:29:12.161Z,71.70
2023-03-18T23:31:43.437Z,71.89
2023-03-18T23:34:17.222Z,71.56
2023-03-18T23:36:49.311Z,71.76
2023-03-18T23:39:20.894Z,71.86
2023-03-18T23:41:58.388Z,72.37
2023-03-18T23:44:30.769Z,72.31
2023-03-18T23:47:02.892Z,72.23
2023-03-18T23:49:35.581Z,72.49
2023-03-18T23:52:12.708Z,72.01
2023-03-18T23:54:47.657Z,71.98
2023-03-18T23:57:19.286Z,72.03
2023-03-18T23:59:51.405Z,71.34
